Purfleet, United Kingdom
Current Conditions -  °F | °C
As of 2:50 PM on Monday 24 Nov 2014 (Local Time) from EGLC Reporting Station
Clear Clear  
Wind Chill: 48°   Ceiling: Unl
Heat Index: 48°   Visibility: 6mi
Dew Point: 39°   Wind: 3mph
Humidity: 71%   Direction: NA
Pressure: 30.33"   Gusts: NA
Location:  51.48°N, 0.24°E
Report Text: EGLC 241450Z VRB03KT CAVOK 09/04 Q1027
Loading
Personal Weather Stations






























Interactive Weather Map New forecast layout! Learn more

10-Day Weather Forecast

Advertisements
Track Severe Weather on mobile